createdAt,value
2023-01-04T00:02:55.726Z,962.93
2023-01-04T00:17:57.684Z,963
2023-01-04T00:32:59.681Z,963.15
2023-01-04T00:48:01.537Z,963.25
2023-01-04T01:03:03.615Z,963.26
2023-01-04T01:18:05.602Z,963.27
2023-01-04T01:33:07.442Z,963.35
2023-01-04T01:48:09.243Z,963.36
2023-01-04T02:03:11.229Z,963.35
2023-01-04T02:18:13.156Z,963.49
2023-01-04T02:33:15.032Z,963.63
2023-01-04T02:48:16.905Z,963.64
2023-01-04T03:03:18.866Z,963.88
2023-01-04T03:18:20.872Z,964.05
2023-01-04T03:33:22.732Z,964.11
2023-01-04T03:48:24.612Z,964.14
2023-01-04T04:03:26.593Z,964.39
2023-01-04T04:18:28.530Z,964.52
2023-01-04T04:33:30.409Z,964.63
2023-01-04T04:48:32.271Z,964.62
2023-01-04T05:03:34.237Z,964.74
2023-01-04T05:18:36.182Z,964.91
2023-01-04T05:33:38.065Z,965.14
2023-01-04T05:48:39.895Z,965.34
2023-01-04T06:03:42.005Z,965.44
2023-01-04T06:18:44.145Z,965.54
2023-01-04T06:33:46.033Z,965.74
2023-01-04T06:48:47.875Z,966.03
2023-01-04T07:03:49.734Z,966.19
2023-01-04T07:18:51.579Z,966.18
2023-01-04T07:33:53.457Z,966.45
2023-01-04T07:48:55.294Z,966.59
2023-01-04T08:03:57.160Z,966.57
2023-01-04T08:18:59.051Z,966.71
2023-01-04T08:34:00.945Z,966.89
2023-01-04T08:49:02.838Z,966.95
2023-01-04T09:04:04.736Z,967.12
2023-01-04T09:19:06.665Z,967.15
2023-01-04T09:34:17.538Z,967.26
2023-01-04T09:49:19.671Z,967.29
2023-01-04T10:04:21.783Z,967.55
2023-01-04T10:21:11.743Z,967.79
2023-01-04T10:36:22.419Z,967.9
2023-01-04T10:51:24.279Z,967.9
2023-01-04T11:06:26.439Z,967.87
2023-01-04T11:21:28.302Z,968.08
2023-01-04T11:36:30.130Z,968.1
2023-01-04T11:51:31.952Z,967.99
2023-01-04T12:06:33.824Z,968.29
2023-01-04T12:21:35.659Z,968.24
2023-01-04T12:36:37.574Z,968.29
2023-01-04T12:51:46.959Z,968.29
2023-01-04T13:07:00.029Z,968.44
2023-01-04T13:22:02.031Z,968.51
2023-01-04T13:37:03.887Z,968.3
2023-01-04T13:52:34.254Z,968.38
2023-01-04T14:07:48.405Z,968.46
2023-01-04T14:22:50.247Z,968.29
2023-01-04T14:37:52.152Z,968.45
2023-01-04T14:52:54.055Z,968.65
2023-01-04T15:07:55.927Z,968.56
2023-01-04T15:22:57.785Z,968.53
2023-01-04T15:37:59.646Z,968.34
2023-01-04T15:53:01.608Z,968.69
2023-01-04T16:08:03.472Z,968.98
2023-01-04T16:23:05.363Z,969.53
2023-01-04T16:38:07.344Z,969.92
2023-01-04T16:53:09.953Z,969.39
2023-01-04T17:08:12.709Z,969.79
2023-01-04T17:23:14.536Z,969.58
2023-01-04T17:38:17.410Z,969.85
2023-01-04T17:53:19.261Z,970.17
2023-01-04T18:08:21.125Z,970.28
2023-01-04T18:23:26.061Z,969.83
2023-01-04T18:38:29.145Z,969.8
2023-01-04T18:53:31.050Z,969.63
2023-01-04T19:08:36.788Z,969.73
2023-01-04T19:23:38.754Z,969.83
2023-01-04T19:38:40.828Z,969.63
2023-01-04T19:53:42.759Z,969.53
2023-01-04T20:08:44.657Z,969.39
2023-01-04T20:23:46.548Z,969.27
2023-01-04T20:38:48.567Z,968.89
2023-01-04T20:53:50.532Z,968.56
2023-01-04T21:08:52.541Z,968.42
2023-01-04T21:23:57.963Z,968.36
2023-01-04T21:39:00.265Z,968.4
2023-01-04T21:54:02.348Z,968.41
2023-01-04T22:09:04.273Z,968.35
2023-01-04T22:24:06.341Z,968.26
2023-01-04T22:39:08.270Z,968.38
2023-01-04T22:54:10.249Z,968.35
2023-01-04T23:09:12.201Z,968.05
2023-01-04T23:24:14.351Z,967.84
2023-01-04T23:39:16.263Z,967.9
2023-01-04T23:54:18.286Z,968.03
